Thomaston, Indiana
Current Conditions -  °F | °C
As of 2:56 PM on Sunday 21 Dec 2014 (Local Time) from KVPZ Reporting Station
Overcast Overcast  
Wind Chill: 31°   Ceiling: 3700
Heat Index: 36°   Visibility: 8mi
Dew Point: 28°   Wind: 6mph
Humidity: 73%   Direction: 140°SE
Pressure: 30.13"   Gusts: NA
Location:  41.4092°N, 86.8646°W
Report Text: KVPZ 212056Z AUTO 14005KT 8SM OVC037 02/M02 A3013 RMK AO2 SLP210 T00221022 56022 TSNO
Loading
Personal Weather Stations






























Interactive Weather Map New forecast layout! Learn more

10-Day Weather Forecast

Advertisements
Track Severe Weather on mobile